Project City, California
Current Conditions -  °F | °C
As of 1:53 PM on Sunday 23 Nov 2014 (Local Time) from KRDD Reporting Station
Few Clouds Few Clouds  
Wind Chill: 14°   Ceiling: Unl
Heat Index: 14°   Visibility: 10mi
Dew Point:   Wind: 7mph
Humidity: 46%   Direction: 340°NNW
Pressure: 30.29"   Gusts: NA
Location:  40.6814°N, 122.35°W
Report Text: KRDD 232153Z 34006KT 10SM FEW120 14/03 A3029 RMK AO2 SLP255 T01440028
Loading
Personal Weather Stations






























Interactive Weather Map New forecast layout! Learn more

10-Day Weather Forecast

Advertisements
Track Severe Weather on mobile